sensor_id;sensor_type;location;lat;lon;timestamp;temperature;humidity
16955;DHT22;8594;52.052;8.354;2022-10-16T00:00:38;15.20;99.90
16955;DHT22;8594;52.052;8.354;2022-10-16T00:03:07;15.20;99.90
16955;DHT22;8594;52.052;8.354;2022-10-16T00:05:38;15.20;99.90
16955;DHT22;8594;52.052;8.354;2022-10-16T00:08:09;15.10;99.90
16955;DHT22;8594;52.052;8.354;2022-10-16T00:10:37;15.10;99.90
16955;DHT22;8594;52.052;8.354;2022-10-16T00:13:05;15.20;99.90
16955;DHT22;8594;52.052;8.354;2022-10-16T00:15:33;15.20;99.90
16955;DHT22;8594;52.052;8.354;2022-10-16T00:18:02;15.00;99.90
16955;DHT22;8594;52.052;8.354;2022-10-16T00:20:29;14.90;99.90
16955;DHT22;8594;52.052;8.354;2022-10-16T00:22:56;14.90;99.90
16955;DHT22;8594;52.052;8.354;2022-10-16T00:25:25;15.00;99.90
16955;DHT22;8594;52.052;8.354;2022-10-16T00:27:52;14.90;99.90
16955;DHT22;8594;52.052;8.354;2022-10-16T00:30:19;14.90;99.90
16955;DHT22;8594;52.052;8.354;2022-10-16T00:32:46;15.00;99.90
16955;DHT22;8594;52.052;8.354;2022-10-16T00:35:12;15.00;99.90
16955;DHT22;8594;52.052;8.354;2022-10-16T00:37:39;15.10;99.90
16955;DHT22;8594;52.052;8.354;2022-10-16T00:40:07;15.10;99.90
16955;DHT22;8594;52.052;8.354;2022-10-16T00:42:36;15.20;99.90
16955;DHT22;8594;52.052;8.354;2022-10-16T00:45:03;15.20;99.90
16955;DHT22;8594;52.052;8.354;2022-10-16T00:47:34;14.90;99.90
16955;DHT22;8594;52.052;8.354;2022-10-16T00:50:08;15.00;99.90
16955;DHT22;8594;52.052;8.354;2022-10-16T00:52:43;15.00;99.90
16955;DHT22;8594;52.052;8.354;2022-10-16T00:55:13;15.00;99.90
16955;DHT22;8594;52.052;8.354;2022-10-16T00:57:42;15.00;99.90
16955;DHT22;8594;52.052;8.354;2022-10-16T01:00:13;14.90;99.90
16955;DHT22;8594;52.052;8.354;2022-10-16T01:02:42;15.20;99.90
16955;DHT22;8594;52.052;8.354;2022-10-16T01:05:09;15.10;99.90
16955;DHT22;8594;52.052;8.354;2022-10-16T01:07:41;15.00;99.90
16955;DHT22;8594;52.052;8.354;2022-10-16T01:10:20;14.90;99.90
16955;DHT22;8594;52.052;8.354;2022-10-16T01:12:59;14.90;99.90
16955;DHT22;8594;52.052;8.354;2022-10-16T01:15:31;14.90;99.90
16955;DHT22;8594;52.052;8.354;2022-10-16T01:18:08;15.00;99.90
16955;DHT22;8594;52.052;8.354;2022-10-16T01:20:44;15.10;99.90
16955;DHT22;8594;52.052;8.354;2022-10-16T01:23:27;15.00;99.90
16955;DHT22;8594;52.052;8.354;2022-10-16T01:26:20;14.90;99.90
16955;DHT22;8594;52.052;8.354;2022-10-16T01:29:06;15.00;99.90
16955;DHT22;8594;52.052;8.354;2022-10-16T01:31:38;15.00;99.90
16955;DHT22;8594;52.052;8.354;2022-10-16T01:34:12;15.10;99.90
16955;DHT22;8594;52.052;8.354;2022-10-16T01:36:47;15.10;99.90
16955;DHT22;8594;52.052;8.354;2022-10-16T01:39:20;15.10;99.90
16955;DHT22;8594;52.052;8.354;2022-10-16T01:41:54;15.00;99.90
16955;DHT22;8594;52.052;8.354;2022-10-16T01:44:31;15.00;99.90
16955;DHT22;8594;52.052;8.354;2022-10-16T01:47:00;15.10;99.90
16955;DHT22;8594;52.052;8.354;2022-10-16T01:49:31;15.10;99.90
16955;DHT22;8594;52.052;8.354;2022-10-16T01:52:04;15.00;99.90
16955;DHT22;8594;52.052;8.354;2022-10-16T01:54:35;15.20;99.90
16955;DHT22;8594;52.052;8.354;2022-10-16T01:57:07;15.20;99.90
16955;DHT22;8594;52.052;8.354;2022-10-16T01:59:44;15.10;99.90
16955;DHT22;8594;52.052;8.354;2022-10-16T02:02:15;15.10;99.90
16955;DHT22;8594;52.052;8.354;2022-10-16T02:04:47;15.10;99.90
16955;DHT22;8594;52.052;8.354;2022-10-16T02:07:18;15.10;99.90
16955;DHT22;8594;52.052;8.354;2022-10-16T02:09:45;15.20;99.90
16955;DHT22;8594;52.052;8.354;2022-10-16T02:12:15;15.20;99.90
16955;DHT22;8594;52.052;8.354;2022-10-16T02:14:47;15.00;99.90
16955;DHT22;8594;52.052;8.354;2022-10-16T02:17:17;15.00;99.90
16955;DHT22;8594;52.052;8.354;2022-10-16T02:19:46;15.00;99.90
16955;DHT22;8594;52.052;8.354;2022-10-16T02:22:19;14.90;99.90
16955;DHT22;8594;52.052;8.354;2022-10-16T02:24:53;15.00;99.90
16955;DHT22;8594;52.052;8.354;2022-10-16T02:27:26;14.90;99.90
16955;DHT22;8594;52.052;8.354;2022-10-16T02:30:05;14.70;99.90
16955;DHT22;8594;52.052;8.354;2022-10-16T02:32:39;14.60;99.90
16955;DHT22;8594;52.052;8.354;2022-10-16T02:35:09;14.60;99.90
16955;DHT22;8594;52.052;8.354;2022-10-16T02:37:38;14.50;99.90
16955;DHT22;8594;52.052;8.354;2022-10-16T02:40:08;14.60;99.90
16955;DHT22;8594;52.052;8.354;2022-10-16T02:42:38;14.70;99.90
16955;DHT22;8594;52.052;8.354;2022-10-16T02:45:09;14.70;99.90
16955;DHT22;8594;52.052;8.354;2022-10-16T02:47:37;14.40;99.90
16955;DHT22;8594;52.052;8.354;2022-10-16T02:50:05;14.40;99.90
16955;DHT22;8594;52.052;8.354;2022-10-16T02:52:32;14.40;99.90
16955;DHT22;8594;52.052;8.354;2022-10-16T02:54:59;14.40;99.90
16955;DHT22;8594;52.052;8.354;2022-10-16T02:57:26;14.60;99.90
16955;DHT22;8594;52.052;8.354;2022-10-16T02:59:53;14.50;99.90
16955;DHT22;8594;52.052;8.354;2022-10-16T03:02:22;14.50;99.90
16955;DHT22;8594;52.052;8.354;2022-10-16T03:04:48;14.40;99.90
16955;DHT22;8594;52.052;8.354;2022-10-16T03:07:15;14.30;99.90
16955;DHT22;8594;52.052;8.354;2022-10-16T03:09:42;14.20;99.90
16955;DHT22;8594;52.052;8.354;2022-10-16T03:12:09;14.20;99.90
16955;DHT22;8594;52.052;8.354;2022-10-16T03:14:37;14.20;99.90
16955;DHT22;8594;52.052;8.354;2022-10-16T03:17:05;14.30;99.90
16955;DHT22;8594;52.052;8.354;2022-10-16T03:19:33;14.20;99.90
16955;DHT22;8594;52.052;8.354;2022-10-16T03:22:01;14.20;99.90
16955;DHT22;8594;52.052;8.354;2022-10-16T03:24:28;14.00;99.90
16955;DHT22;8594;52.052;8.354;2022-10-16T03:26:55;14.10;99.90
16955;DHT22;8594;52.052;8.354;2022-10-16T03:29:22;14.00;99.90
16955;DHT22;8594;52.052;8.354;2022-10-16T03:31:49;14.20;99.90
16955;DHT22;8594;52.052;8.354;2022-10-16T03:34:16;14.30;99.90
16955;DHT22;8594;52.052;8.354;2022-10-16T03:36:44;14.20;99.90
16955;DHT22;8594;52.052;8.354;2022-10-16T03:39:11;14.30;99.90
16955;DHT22;8594;52.052;8.354;2022-10-16T03:41:38;14.20;99.90
16955;DHT22;8594;52.052;8.354;2022-10-16T03:44:05;14.30;99.90
16955;DHT22;8594;52.052;8.354;2022-10-16T03:46:31;14.10;99.90
16955;DHT22;8594;52.052;8.354;2022-10-16T03:48:58;14.10;99.90
16955;DHT22;8594;52.052;8.354;2022-10-16T03:51:25;14.00;99.90
16955;DHT22;8594;52.052;8.354;2022-10-16T03:53:53;14.10;99.90
16955;DHT22;8594;52.052;8.354;2022-10-16T03:56:20;14.20;99.90
16955;DHT22;8594;52.052;8.354;2022-10-16T03:58:47;14.10;99.90
16955;DHT22;8594;52.052;8.354;2022-10-16T04:01:14;14.30;99.90
16955;DHT22;8594;52.052;8.354;2022-10-16T04:03:41;14.20;99.90
16955;DHT22;8594;52.052;8.354;2022-10-16T04:06:08;14.10;99.90
16955;DHT22;8594;52.052;8.354;2022-10-16T04:08:35;14.30;99.90
16955;DHT22;8594;52.052;8.354;2022-10-16T04:11:05;14.40;99.90
16955;DHT22;8594;52.052;8.354;2022-10-16T04:13:32;14.60;99.90
16955;DHT22;8594;52.052;8.354;2022-10-16T04:15:59;14.30;99.90
16955;DHT22;8594;52.052;8.354;2022-10-16T04:18:26;14.20;99.90
16955;DHT22;8594;52.052;8.354;2022-10-16T04:20:54;14.20;99.90
16955;DHT22;8594;52.052;8.354;2022-10-16T04:23:21;14.30;99.90
16955;DHT22;8594;52.052;8.354;2022-10-16T04:25:49;14.30;99.90
16955;DHT22;8594;52.052;8.354;2022-10-16T04:28:17;14.30;99.90
16955;DHT22;8594;52.052;8.354;2022-10-16T04:30:44;14.20;99.90
16955;DHT22;8594;52.052;8.354;2022-10-16T04:33:11;14.20;99.90
16955;DHT22;8594;52.052;8.354;2022-10-16T04:35:38;14.40;99.90
16955;DHT22;8594;52.052;8.354;2022-10-16T04:38:05;14.40;99.90
16955;DHT22;8594;52.052;8.354;2022-10-16T04:40:32;14.30;99.90
16955;DHT22;8594;52.052;8.354;2022-10-16T04:43:02;14.30;99.90
16955;DHT22;8594;52.052;8.354;2022-10-16T04:45:30;14.40;99.90
16955;DHT22;8594;52.052;8.354;2022-10-16T04:47:58;14.50;99.90
16955;DHT22;8594;52.052;8.354;2022-10-16T04:50:25;14.40;99.90
16955;DHT22;8594;52.052;8.354;2022-10-16T04:52:52;14.50;99.90
16955;DHT22;8594;52.052;8.354;2022-10-16T04:55:20;14.50;99.90
16955;DHT22;8594;52.052;8.354;2022-10-16T04:57:47;14.60;99.90
16955;DHT22;8594;52.052;8.354;2022-10-16T05:00:14;14.60;99.90
16955;DHT22;8594;52.052;8.354;2022-10-16T05:02:42;14.70;99.90
16955;DHT22;8594;52.052;8.354;2022-10-16T05:05:09;14.70;99.90
16955;DHT22;8594;52.052;8.354;2022-10-16T05:07:36;14.70;99.90
16955;DHT22;8594;52.052;8.354;2022-10-16T05:10:04;14.70;99.90
16955;DHT22;8594;52.052;8.354;2022-10-16T05:12:32;14.70;99.90
16955;DHT22;8594;52.052;8.354;2022-10-16T05:14:59;14.80;99.90
16955;DHT22;8594;52.052;8.354;2022-10-16T05:17:25;14.80;99.90
16955;DHT22;8594;52.052;8.354;2022-10-16T05:19:54;14.80;99.90
16955;DHT22;8594;52.052;8.354;2022-10-16T05:22:21;14.70;99.90
16955;DHT22;8594;52.052;8.354;2022-10-16T05:24:48;14.60;99.90
16955;DHT22;8594;52.052;8.354;2022-10-16T05:27:15;14.60;99.90
16955;DHT22;8594;52.052;8.354;2022-10-16T05:29:45;14.40;99.90
16955;DHT22;8594;52.052;8.354;2022-10-16T05:32:12;14.50;99.90
16955;DHT22;8594;52.052;8.354;2022-10-16T05:34:39;14.60;99.90
16955;DHT22;8594;52.052;8.354;2022-10-16T05:37:07;14.60;99.90
16955;DHT22;8594;52.052;8.354;2022-10-16T05:39:34;14.60;99.90
16955;DHT22;8594;52.052;8.354;2022-10-16T05:42:02;14.60;99.90
16955;DHT22;8594;52.052;8.354;2022-10-16T05:44:30;14.60;99.90
16955;DHT22;8594;52.052;8.354;2022-10-16T05:46:57;14.80;99.90
16955;DHT22;8594;52.052;8.354;2022-10-16T05:49:24;14.70;99.90
16955;DHT22;8594;52.052;8.354;2022-10-16T05:51:51;14.60;99.90
16955;DHT22;8594;52.052;8.354;2022-10-16T05:54:19;14.60;99.90
16955;DHT22;8594;52.052;8.354;2022-10-16T05:56:46;14.60;99.90
16955;DHT22;8594;52.052;8.354;2022-10-16T05:59:13;14.60;99.90
16955;DHT22;8594;52.052;8.354;2022-10-16T06:01:40;14.70;99.90
16955;DHT22;8594;52.052;8.354;2022-10-16T06:04:08;14.80;99.90
16955;DHT22;8594;52.052;8.354;2022-10-16T06:06:35;14.80;99.90
16955;DHT22;8594;52.052;8.354;2022-10-16T06:09:03;14.70;99.90
16955;DHT22;8594;52.052;8.354;2022-10-16T06:11:33;14.80;99.90
16955;DHT22;8594;52.052;8.354;2022-10-16T06:14:01;14.90;99.90
16955;DHT22;8594;52.052;8.354;2022-10-16T06:16:32;14.80;99.90
16955;DHT22;8594;52.052;8.354;2022-10-16T06:18:59;14.80;99.90
16955;DHT22;8594;52.052;8.354;2022-10-16T06:21:27;14.80;99.90
16955;DHT22;8594;52.052;8.354;2022-10-16T06:23:56;15.00;99.90
16955;DHT22;8594;52.052;8.354;2022-10-16T06:26:26;15.00;99.90
16955;DHT22;8594;52.052;8.354;2022-10-16T06:28:57;15.10;99.90
16955;DHT22;8594;52.052;8.354;2022-10-16T06:31:25;15.20;99.90
16955;DHT22;8594;52.052;8.354;2022-10-16T06:33:54;15.30;99.90
16955;DHT22;8594;52.052;8.354;2022-10-16T06:36:21;15.30;99.90
16955;DHT22;8594;52.052;8.354;2022-10-16T06:38:49;15.30;99.90
16955;DHT22;8594;52.052;8.354;2022-10-16T06:41:17;15.20;99.90
16955;DHT22;8594;52.052;8.354;2022-10-16T06:43:46;15.20;99.90
16955;DHT22;8594;52.052;8.354;2022-10-16T06:46:16;15.20;99.90
16955;DHT22;8594;52.052;8.354;2022-10-16T06:48:45;15.20;99.90
16955;DHT22;8594;52.052;8.354;2022-10-16T06:51:14;15.30;99.90
16955;DHT22;8594;52.052;8.354;2022-10-16T06:53:44;15.40;99.90
16955;DHT22;8594;52.052;8.354;2022-10-16T06:56:14;15.20;99.90
16955;DHT22;8594;52.052;8.354;2022-10-16T06:58:43;15.20;99.90
16955;DHT22;8594;52.052;8.354;2022-10-16T07:01:11;15.20;99.90
16955;DHT22;8594;52.052;8.354;2022-10-16T07:03:42;15.30;99.90
16955;DHT22;8594;52.052;8.354;2022-10-16T07:06:12;15.40;99.90
16955;DHT22;8594;52.052;8.354;2022-10-16T07:08:42;15.90;99.90
16955;DHT22;8594;52.052;8.354;2022-10-16T07:11:12;16.50;99.90
16955;DHT22;8594;52.052;8.354;2022-10-16T07:13:42;16.50;99.90
16955;DHT22;8594;52.052;8.354;2022-10-16T07:16:11;16.70;99.90
16955;DHT22;8594;52.052;8.354;2022-10-16T07:18:41;17.10;99.90
16955;DHT22;8594;52.052;8.354;2022-10-16T07:21:14;17.70;99.90
16955;DHT22;8594;52.052;8.354;2022-10-16T07:23:42;18.40;99.90
16955;DHT22;8594;52.052;8.354;2022-10-16T07:26:10;18.90;99.90
16955;DHT22;8594;52.052;8.354;2022-10-16T07:28:38;19.30;99.90
16955;DHT22;8594;52.052;8.354;2022-10-16T07:31:07;19.10;99.90
16955;DHT22;8594;52.052;8.354;2022-10-16T07:33:39;19.20;99.90
16955;DHT22;8594;52.052;8.354;2022-10-16T07:36:10;19.10;99.90
16955;DHT22;8594;52.052;8.354;2022-10-16T07:38:38;19.00;99.90
16955;DHT22;8594;52.052;8.354;2022-10-16T07:41:06;19.00;99.90
16955;DHT22;8594;52.052;8.354;2022-10-16T07:43:35;19.00;99.90
16955;DHT22;8594;52.052;8.354;2022-10-16T07:46:02;19.20;99.90
16955;DHT22;8594;52.052;8.354;2022-10-16T07:48:31;19.00;99.90
16955;DHT22;8594;52.052;8.354;2022-10-16T07:51:02;18.90;99.90
16955;DHT22;8594;52.052;8.354;2022-10-16T07:53:30;18.70;99.90
16955;DHT22;8594;52.052;8.354;2022-10-16T07:55:58;18.50;99.90
16955;DHT22;8594;52.052;8.354;2022-10-16T07:58:25;18.70;99.90
16955;DHT22;8594;52.052;8.354;2022-10-16T08:00:53;18.70;99.90
16955;DHT22;8594;52.052;8.354;2022-10-16T08:03:20;19.00;99.90
16955;DHT22;8594;52.052;8.354;2022-10-16T08:05:46;19.50;99.90
16955;DHT22;8594;52.052;8.354;2022-10-16T08:08:16;19.70;99.90
16955;DHT22;8594;52.052;8.354;2022-10-16T08:10:44;20.00;99.90
16955;DHT22;8594;52.052;8.354;2022-10-16T08:13:11;20.50;99.90
16955;DHT22;8594;52.052;8.354;2022-10-16T08:15:40;20.70;99.90
16955;DHT22;8594;52.052;8.354;2022-10-16T08:18:07;21.10;99.90
16955;DHT22;8594;52.052;8.354;2022-10-16T08:20:35;20.80;99.90
16955;DHT22;8594;52.052;8.354;2022-10-16T08:23:02;20.80;99.90
16955;DHT22;8594;52.052;8.354;2022-10-16T08:25:31;20.90;99.90
16955;DHT22;8594;52.052;8.354;2022-10-16T08:27:58;21.10;99.90
16955;DHT22;8594;52.052;8.354;2022-10-16T08:30:25;21.30;99.90
16955;DHT22;8594;52.052;8.354;2022-10-16T08:32:52;21.40;99.90
16955;DHT22;8594;52.052;8.354;2022-10-16T08:35:19;21.20;99.90
16955;DHT22;8594;52.052;8.354;2022-10-16T08:37:45;21.40;99.90
16955;DHT22;8594;52.052;8.354;2022-10-16T08:40:18;21.30;99.90
16955;DHT22;8594;52.052;8.354;2022-10-16T08:42:57;21.30;99.90
16955;DHT22;8594;52.052;8.354;2022-10-16T08:45:43;21.40;99.90
16955;DHT22;8594;52.052;8.354;2022-10-16T08:48:19;21.60;99.90
16955;DHT22;8594;52.052;8.354;2022-10-16T08:50:52;21.90;99.90
16955;DHT22;8594;52.052;8.354;2022-10-16T08:53:23;22.10;99.90
16955;DHT22;8594;52.052;8.354;2022-10-16T08:55:54;21.80;99.90
16955;DHT22;8594;52.052;8.354;2022-10-16T08:58:27;21.80;99.90
16955;DHT22;8594;52.052;8.354;2022-10-16T09:00:56;21.80;99.90
16955;DHT22;8594;52.052;8.354;2022-10-16T09:03:37;21.40;99.90
16955;DHT22;8594;52.052;8.354;2022-10-16T09:06:26;20.80;99.90
16955;DHT22;8594;52.052;8.354;2022-10-16T09:09:14;20.90;99.90
16955;DHT22;8594;52.052;8.354;2022-10-16T09:11:56;20.90;99.90
16955;DHT22;8594;52.052;8.354;2022-10-16T09:14:42;20.80;99.90
16955;DHT22;8594;52.052;8.354;2022-10-16T09:17:35;20.80;99.90
16955;DHT22;8594;52.052;8.354;2022-10-16T09:20:19;20.60;99.90
16955;DHT22;8594;52.052;8.354;2022-10-16T09:23:07;20.50;99.90
16955;DHT22;8594;52.052;8.354;2022-10-16T09:25:39;20.60;99.90
16955;DHT22;8594;52.052;8.354;2022-10-16T09:28:09;21.10;99.90
16955;DHT22;8594;52.052;8.354;2022-10-16T09:30:38;21.10;99.90
16955;DHT22;8594;52.052;8.354;2022-10-16T09:33:06;20.80;99.90
16955;DHT22;8594;52.052;8.354;2022-10-16T09:35:38;20.90;99.90
16955;DHT22;8594;52.052;8.354;2022-10-16T09:38:07;20.80;99.90
16955;DHT22;8594;52.052;8.354;2022-10-16T09:40:36;20.80;99.90
16955;DHT22;8594;52.052;8.354;2022-10-16T09:43:20;21.00;99.90
16955;DHT22;8594;52.052;8.354;2022-10-16T09:45:56;21.20;99.90
16955;DHT22;8594;52.052;8.354;2022-10-16T09:48:26;21.30;99.90
16955;DHT22;8594;52.052;8.354;2022-10-16T09:50:58;21.80;99.90
16955;DHT22;8594;52.052;8.354;2022-10-16T09:53:39;21.70;99.90
16955;DHT22;8594;52.052;8.354;2022-10-16T09:56:10;21.30;99.90
16955;DHT22;8594;52.052;8.354;2022-10-16T09:58:42;21.80;99.90
16955;DHT22;8594;52.052;8.354;2022-10-16T10:01:14;21.40;99.90
16955;DHT22;8594;52.052;8.354;2022-10-16T10:03:42;21.70;99.90
16955;DHT22;8594;52.052;8.354;2022-10-16T10:06:20;21.70;99.90
16955;DHT22;8594;52.052;8.354;2022-10-16T10:08:58;21.90;99.90
16955;DHT22;8594;52.052;8.354;2022-10-16T10:11:44;22.00;99.90
16955;DHT22;8594;52.052;8.354;2022-10-16T10:14:34;22.00;99.90
16955;DHT22;8594;52.052;8.354;2022-10-16T10:17:12;22.20;99.90
16955;DHT22;8594;52.052;8.354;2022-10-16T10:19:44;21.80;99.90
16955;DHT22;8594;52.052;8.354;2022-10-16T10:22:18;22.10;99.90
16955;DHT22;8594;52.052;8.354;2022-10-16T10:25:19;22.00;99.90
16955;DHT22;8594;52.052;8.354;2022-10-16T10:28:14;22.10;99.90
16955;DHT22;8594;52.052;8.354;2022-10-16T10:30:59;22.20;99.90
16955;DHT22;8594;52.052;8.354;2022-10-16T10:33:38;21.50;99.90
16955;DHT22;8594;52.052;8.354;2022-10-16T10:36:17;21.20;99.90
16955;DHT22;8594;52.052;8.354;2022-10-16T10:38:56;21.30;99.90
16955;DHT22;8594;52.052;8.354;2022-10-16T10:44:56;21.30;99.90
16955;DHT22;8594;52.052;8.354;2022-10-16T10:47:45;21.20;99.90
16955;DHT22;8594;52.052;8.354;2022-10-16T10:50:25;21.20;99.90
16955;DHT22;8594;52.052;8.354;2022-10-16T10:53:02;21.60;99.90
16955;DHT22;8594;52.052;8.354;2022-10-16T10:55:42;21.50;99.90
16955;DHT22;8594;52.052;8.354;2022-10-16T11:01:26;21.70;99.90
16955;DHT22;8594;52.052;8.354;2022-10-16T11:04:20;21.20;99.90
16955;DHT22;8594;52.052;8.354;2022-10-16T11:07:21;20.80;99.90
16955;DHT22;8594;52.052;8.354;2022-10-16T11:09:57;20.70;99.90
16955;DHT22;8594;52.052;8.354;2022-10-16T11:12:31;20.70;99.90
16955;DHT22;8594;52.052;8.354;2022-10-16T11:15:07;20.60;99.90
16955;DHT22;8594;52.052;8.354;2022-10-16T11:17:43;20.50;99.90
16955;DHT22;8594;52.052;8.354;2022-10-16T11:20:18;20.60;99.90
16955;DHT22;8594;52.052;8.354;2022-10-16T11:22:52;20.90;99.90
16955;DHT22;8594;52.052;8.354;2022-10-16T11:25:26;21.00;99.90
16955;DHT22;8594;52.052;8.354;2022-10-16T11:27:58;21.30;99.90
16955;DHT22;8594;52.052;8.354;2022-10-16T11:30:33;21.50;99.90
16955;DHT22;8594;52.052;8.354;2022-10-16T11:33:21;21.90;99.90
16955;DHT22;8594;52.052;8.354;2022-10-16T11:36:00;22.10;99.90
16955;DHT22;8594;52.052;8.354;2022-10-16T11:38:41;22.00;99.90
16955;DHT22;8594;52.052;8.354;2022-10-16T11:41:21;21.90;99.90
16955;DHT22;8594;52.052;8.354;2022-10-16T11:44:00;22.00;99.90
16955;DHT22;8594;52.052;8.354;2022-10-16T11:46:40;22.30;99.90
16955;DHT22;8594;52.052;8.354;2022-10-16T11:49:15;22.40;99.90
16955;DHT22;8594;52.052;8.354;2022-10-16T11:51:50;22.70;99.90
16955;DHT22;8594;52.052;8.354;2022-10-16T11:54:33;22.80;99.90
16955;DHT22;8594;52.052;8.354;2022-10-16T11:57:11;23.10;99.90
16955;DHT22;8594;52.052;8.354;2022-10-16T11:59:45;22.80;99.90
16955;DHT22;8594;52.052;8.354;2022-10-16T12:02:35;22.90;99.90
16955;DHT22;8594;52.052;8.354;2022-10-16T12:05:22;23.00;99.90
16955;DHT22;8594;52.052;8.354;2022-10-16T12:08:06;22.30;99.90
16955;DHT22;8594;52.052;8.354;2022-10-16T12:10:40;22.20;99.90
16955;DHT22;8594;52.052;8.354;2022-10-16T12:13:30;22.20;99.90
16955;DHT22;8594;52.052;8.354;2022-10-16T12:16:07;22.60;99.90
16955;DHT22;8594;52.052;8.354;2022-10-16T12:18:47;22.70;99.90
16955;DHT22;8594;52.052;8.354;2022-10-16T12:21:16;22.70;99.90
16955;DHT22;8594;52.052;8.354;2022-10-16T12:23:49;22.60;99.90
16955;DHT22;8594;52.052;8.354;2022-10-16T12:26:26;22.40;99.90
16955;DHT22;8594;52.052;8.354;2022-10-16T12:29:12;22.30;99.90
16955;DHT22;8594;52.052;8.354;2022-10-16T12:31:45;21.90;99.90
16955;DHT22;8594;52.052;8.354;2022-10-16T12:34:21;21.80;99.90
16955;DHT22;8594;52.052;8.354;2022-10-16T12:36:52;21.60;99.90
16955;DHT22;8594;52.052;8.354;2022-10-16T12:39:22;21.40;99.90
16955;DHT22;8594;52.052;8.354;2022-10-16T12:42:03;21.40;99.90
16955;DHT22;8594;52.052;8.354;2022-10-16T12:44:33;21.50;99.90
16955;DHT22;8594;52.052;8.354;2022-10-16T12:47:02;21.40;99.90
16955;DHT22;8594;52.052;8.354;2022-10-16T12:49:34;21.70;99.90
16955;DHT22;8594;52.052;8.354;2022-10-16T12:52:04;22.00;99.90
16955;DHT22;8594;52.052;8.354;2022-10-16T12:54:34;22.00;99.90
16955;DHT22;8594;52.052;8.354;2022-10-16T12:57:23;22.00;99.90
16955;DHT22;8594;52.052;8.354;2022-10-16T13:00:03;22.10;99.90
16955;DHT22;8594;52.052;8.354;2022-10-16T13:03:04;22.40;99.90
16955;DHT22;8594;52.052;8.354;2022-10-16T13:06:03;22.50;99.90
16955;DHT22;8594;52.052;8.354;2022-10-16T13:09:00;22.80;99.90
16955;DHT22;8594;52.052;8.354;2022-10-16T13:11:45;22.50;99.90
16955;DHT22;8594;52.052;8.354;2022-10-16T13:14:40;22.40;99.90
16955;DHT22;8594;52.052;8.354;2022-10-16T13:17:21;22.60;99.90
16955;DHT22;8594;52.052;8.354;2022-10-16T13:19:58;22.40;99.90
16955;DHT22;8594;52.052;8.354;2022-10-16T13:22:38;22.30;99.90
16955;DHT22;8594;52.052;8.354;2022-10-16T13:25:23;22.40;99.90
16955;DHT22;8594;52.052;8.354;2022-10-16T13:28:00;22.50;99.90
16955;DHT22;8594;52.052;8.354;2022-10-16T13:30:30;22.30;99.90
16955;DHT22;8594;52.052;8.354;2022-10-16T13:33:03;22.20;99.90
16955;DHT22;8594;52.052;8.354;2022-10-16T13:35:35;22.10;99.90
16955;DHT22;8594;52.052;8.354;2022-10-16T13:38:11;22.00;99.90
16955;DHT22;8594;52.052;8.354;2022-10-16T13:40:52;22.00;99.90
16955;DHT22;8594;52.052;8.354;2022-10-16T13:43:23;22.00;99.90
16955;DHT22;8594;52.052;8.354;2022-10-16T13:45:57;22.10;99.90
16955;DHT22;8594;52.052;8.354;2022-10-16T13:48:26;22.00;99.90
16955;DHT22;8594;52.052;8.354;2022-10-16T13:51:00;22.00;99.90
16955;DHT22;8594;52.052;8.354;2022-10-16T13:53:30;21.80;99.90
16955;DHT22;8594;52.052;8.354;2022-10-16T13:55:58;21.70;99.90
16955;DHT22;8594;52.052;8.354;2022-10-16T13:58:27;21.50;99.90
16955;DHT22;8594;52.052;8.354;2022-10-16T14:00:57;21.30;99.90
16955;DHT22;8594;52.052;8.354;2022-10-16T14:03:27;21.40;99.90
16955;DHT22;8594;52.052;8.354;2022-10-16T14:05:57;21.30;99.90
16955;DHT22;8594;52.052;8.354;2022-10-16T14:08:28;21.20;99.90
16955;DHT22;8594;52.052;8.354;2022-10-16T14:10:58;21.40;99.90
16955;DHT22;8594;52.052;8.354;2022-10-16T14:13:30;21.50;99.90
16955;DHT22;8594;52.052;8.354;2022-10-16T14:16:09;21.40;99.90
16955;DHT22;8594;52.052;8.354;2022-10-16T14:18:38;21.20;99.90
16955;DHT22;8594;52.052;8.354;2022-10-16T14:21:11;21.10;99.90
16955;DHT22;8594;52.052;8.354;2022-10-16T14:23:41;21.20;99.90
16955;DHT22;8594;52.052;8.354;2022-10-16T14:26:17;21.30;99.90
16955;DHT22;8594;52.052;8.354;2022-10-16T14:28:47;21.30;99.90
16955;DHT22;8594;52.052;8.354;2022-10-16T14:31:29;21.20;99.90
16955;DHT22;8594;52.052;8.354;2022-10-16T14:33:58;21.20;99.90
16955;DHT22;8594;52.052;8.354;2022-10-16T14:36:27;21.10;99.90
16955;DHT22;8594;52.052;8.354;2022-10-16T14:38:59;21.20;99.90
16955;DHT22;8594;52.052;8.354;2022-10-16T14:41:29;21.20;99.90
16955;DHT22;8594;52.052;8.354;2022-10-16T14:44:01;21.20;99.90
16955;DHT22;8594;52.052;8.354;2022-10-16T14:46:33;21.30;99.90
16955;DHT22;8594;52.052;8.354;2022-10-16T14:49:14;21.20;99.90
16955;DHT22;8594;52.052;8.354;2022-10-16T14:51:44;21.00;99.90
16955;DHT22;8594;52.052;8.354;2022-10-16T14:54:11;20.90;99.90
16955;DHT22;8594;52.052;8.354;2022-10-16T14:56:45;20.80;99.90
16955;DHT22;8594;52.052;8.354;2022-10-16T14:59:17;20.70;99.90
16955;DHT22;8594;52.052;8.354;2022-10-16T15:01:50;20.80;99.90
16955;DHT22;8594;52.052;8.354;2022-10-16T15:04:17;20.70;99.90
16955;DHT22;8594;52.052;8.354;2022-10-16T15:06:44;20.90;99.90
16955;DHT22;8594;52.052;8.354;2022-10-16T15:09:11;20.90;99.90
16955;DHT22;8594;52.052;8.354;2022-10-16T15:11:38;20.70;99.90
16955;DHT22;8594;52.052;8.354;2022-10-16T15:14:05;20.60;99.90
16955;DHT22;8594;52.052;8.354;2022-10-16T15:16:32;20.80;99.90
16955;DHT22;8594;52.052;8.354;2022-10-16T15:19:01;20.90;99.90
16955;DHT22;8594;52.052;8.354;2022-10-16T15:21:30;21.00;99.90
16955;DHT22;8594;52.052;8.354;2022-10-16T15:23:59;20.90;99.90
16955;DHT22;8594;52.052;8.354;2022-10-16T15:26:28;20.80;99.90
16955;DHT22;8594;52.052;8.354;2022-10-16T15:28:56;20.70;99.90
16955;DHT22;8594;52.052;8.354;2022-10-16T15:31:23;20.70;99.90
16955;DHT22;8594;52.052;8.354;2022-10-16T15:33:51;20.70;99.90
16955;DHT22;8594;52.052;8.354;2022-10-16T15:36:26;20.60;99.90
16955;DHT22;8594;52.052;8.354;2022-10-16T15:38:55;20.60;99.90
16955;DHT22;8594;52.052;8.354;2022-10-16T15:41:22;20.60;99.90
16955;DHT22;8594;52.052;8.354;2022-10-16T15:43:50;20.50;99.90
16955;DHT22;8594;52.052;8.354;2022-10-16T15:46:19;20.50;99.90
16955;DHT22;8594;52.052;8.354;2022-10-16T15:48:47;20.30;99.90
16955;DHT22;8594;52.052;8.354;2022-10-16T15:51:14;20.30;99.90
16955;DHT22;8594;52.052;8.354;2022-10-16T15:53:43;20.20;99.90
16955;DHT22;8594;52.052;8.354;2022-10-16T15:56:12;20.10;99.90
16955;DHT22;8594;52.052;8.354;2022-10-16T15:58:40;20.00;99.90
16955;DHT22;8594;52.052;8.354;2022-10-16T16:01:07;20.00;99.90
16955;DHT22;8594;52.052;8.354;2022-10-16T16:03:36;19.90;99.90
16955;DHT22;8594;52.052;8.354;2022-10-16T16:06:09;19.90;99.90
16955;DHT22;8594;52.052;8.354;2022-10-16T16:08:38;20.00;99.90
16955;DHT22;8594;52.052;8.354;2022-10-16T16:11:09;19.70;99.90
16955;DHT22;8594;52.052;8.354;2022-10-16T16:13:37;19.80;99.90
16955;DHT22;8594;52.052;8.354;2022-10-16T16:16:06;19.70;99.90
16955;DHT22;8594;52.052;8.354;2022-10-16T16:18:34;19.70;99.90
16955;DHT22;8594;52.052;8.354;2022-10-16T16:21:02;19.70;99.90